sensor_id;sensor_type;location;lat;lon;timestamp;temperature;humidity
59234;DHT22;60776;51.702;7.462;2023-08-06T00:02:07;16.60;99.90
59234;DHT22;60776;51.702;7.462;2023-08-06T00:04:33;16.60;99.90
59234;DHT22;60776;51.702;7.462;2023-08-06T00:07:01;16.60;99.90
59234;DHT22;60776;51.702;7.462;2023-08-06T00:09:27;16.70;99.90
59234;DHT22;60776;51.702;7.462;2023-08-06T00:11:53;16.70;99.90
59234;DHT22;60776;51.702;7.462;2023-08-06T00:14:18;16.70;99.90
59234;DHT22;60776;51.702;7.462;2023-08-06T00:16:44;16.70;99.90
59234;DHT22;60776;51.702;7.462;2023-08-06T00:19:10;16.80;99.90
59234;DHT22;60776;51.702;7.462;2023-08-06T00:21:42;16.80;99.90
59234;DHT22;60776;51.702;7.462;2023-08-06T00:24:08;16.90;99.90
59234;DHT22;60776;51.702;7.462;2023-08-06T00:26:33;16.90;99.90
59234;DHT22;60776;51.702;7.462;2023-08-06T00:28:59;17.00;99.90
59234;DHT22;60776;51.702;7.462;2023-08-06T00:31:27;17.00;99.90
59234;DHT22;60776;51.702;7.462;2023-08-06T00:33:53;17.00;99.90
59234;DHT22;60776;51.702;7.462;2023-08-06T00:36:19;17.00;99.90
59234;DHT22;60776;51.702;7.462;2023-08-06T00:38:44;17.10;99.90
59234;DHT22;60776;51.702;7.462;2023-08-06T00:41:10;17.10;99.90
59234;DHT22;60776;51.702;7.462;2023-08-06T00:43:36;17.20;99.90
59234;DHT22;60776;51.702;7.462;2023-08-06T00:46:01;17.20;99.90
59234;DHT22;60776;51.702;7.462;2023-08-06T00:48:27;17.20;99.90
59234;DHT22;60776;51.702;7.462;2023-08-06T00:50:53;17.10;99.90
59234;DHT22;60776;51.702;7.462;2023-08-06T00:53:19;17.10;99.90
59234;DHT22;60776;51.702;7.462;2023-08-06T00:55:45;17.20;99.90
59234;DHT22;60776;51.702;7.462;2023-08-06T00:58:12;17.10;99.90
59234;DHT22;60776;51.702;7.462;2023-08-06T01:00:38;17.10;99.90
59234;DHT22;60776;51.702;7.462;2023-08-06T01:03:04;17.20;99.90
59234;DHT22;60776;51.702;7.462;2023-08-06T01:05:30;17.20;99.90
59234;DHT22;60776;51.702;7.462;2023-08-06T01:13:43;17.30;99.90
59234;DHT22;60776;51.702;7.462;2023-08-06T01:16:18;17.20;99.90
59234;DHT22;60776;51.702;7.462;2023-08-06T01:18:47;17.30;99.90
59234;DHT22;60776;51.702;7.462;2023-08-06T01:21:15;17.30;99.90
59234;DHT22;60776;51.702;7.462;2023-08-06T01:23:44;17.30;99.90
59234;DHT22;60776;51.702;7.462;2023-08-06T01:31:30;17.60;99.90
59234;DHT22;60776;51.702;7.462;2023-08-06T01:33:58;17.60;99.90
59234;DHT22;60776;51.702;7.462;2023-08-06T01:36:25;17.60;99.90
59234;DHT22;60776;51.702;7.462;2023-08-06T01:38:53;17.60;99.90
59234;DHT22;60776;51.702;7.462;2023-08-06T01:41:18;17.50;99.90
59234;DHT22;60776;51.702;7.462;2023-08-06T01:43:44;17.60;99.90
59234;DHT22;60776;51.702;7.462;2023-08-06T01:46:12;17.60;99.90
59234;DHT22;60776;51.702;7.462;2023-08-06T01:48:38;17.70;99.90
59234;DHT22;60776;51.702;7.462;2023-08-06T01:51:04;17.70;99.90
59234;DHT22;60776;51.702;7.462;2023-08-06T01:53:31;17.70;99.90
59234;DHT22;60776;51.702;7.462;2023-08-06T01:55:57;17.80;99.90
59234;DHT22;60776;51.702;7.462;2023-08-06T01:58:23;17.80;99.90
59234;DHT22;60776;51.702;7.462;2023-08-06T02:00:49;17.80;99.90
59234;DHT22;60776;51.702;7.462;2023-08-06T02:03:14;17.70;99.90
59234;DHT22;60776;51.702;7.462;2023-08-06T02:05:40;17.70;99.90
59234;DHT22;60776;51.702;7.462;2023-08-06T02:08:06;17.70;99.90
59234;DHT22;60776;51.702;7.462;2023-08-06T02:10:32;17.70;99.90
59234;DHT22;60776;51.702;7.462;2023-08-06T02:12:57;17.60;99.90
59234;DHT22;60776;51.702;7.462;2023-08-06T02:15:23;17.50;99.90
59234;DHT22;60776;51.702;7.462;2023-08-06T02:17:49;17.50;99.90
59234;DHT22;60776;51.702;7.462;2023-08-06T02:20:14;17.40;99.90
59234;DHT22;60776;51.702;7.462;2023-08-06T02:22:40;17.40;99.90
59234;DHT22;60776;51.702;7.462;2023-08-06T02:25:06;17.40;99.90
59234;DHT22;60776;51.702;7.462;2023-08-06T02:27:31;17.40;99.90
59234;DHT22;60776;51.702;7.462;2023-08-06T02:29:57;17.50;99.90
59234;DHT22;60776;51.702;7.462;2023-08-06T02:32:23;17.50;99.90
59234;DHT22;60776;51.702;7.462;2023-08-06T02:34:48;17.40;99.90
59234;DHT22;60776;51.702;7.462;2023-08-06T02:37:14;17.50;99.90
59234;DHT22;60776;51.702;7.462;2023-08-06T02:39:40;17.50;99.90
59234;DHT22;60776;51.702;7.462;2023-08-06T02:42:09;17.50;99.90
59234;DHT22;60776;51.702;7.462;2023-08-06T02:44:35;17.40;99.90
59234;DHT22;60776;51.702;7.462;2023-08-06T02:47:01;17.30;99.90
59234;DHT22;60776;51.702;7.462;2023-08-06T02:49:26;17.30;99.90
59234;DHT22;60776;51.702;7.462;2023-08-06T02:51:52;17.20;99.90
59234;DHT22;60776;51.702;7.462;2023-08-06T02:54:18;17.10;99.90
59234;DHT22;60776;51.702;7.462;2023-08-06T02:56:45;17.00;99.90
59234;DHT22;60776;51.702;7.462;2023-08-06T02:59:12;17.00;99.90
59234;DHT22;60776;51.702;7.462;2023-08-06T03:01:38;17.00;99.90
59234;DHT22;60776;51.702;7.462;2023-08-06T03:04:04;17.00;99.90
59234;DHT22;60776;51.702;7.462;2023-08-06T03:06:30;16.90;99.90
59234;DHT22;60776;51.702;7.462;2023-08-06T03:08:55;16.90;99.90
59234;DHT22;60776;51.702;7.462;2023-08-06T03:11:21;16.90;99.90
59234;DHT22;60776;51.702;7.462;2023-08-06T03:13:47;17.00;99.90
59234;DHT22;60776;51.702;7.462;2023-08-06T03:16:13;17.00;99.90
59234;DHT22;60776;51.702;7.462;2023-08-06T03:18:39;16.90;99.90
59234;DHT22;60776;51.702;7.462;2023-08-06T03:21:04;16.90;99.90
59234;DHT22;60776;51.702;7.462;2023-08-06T03:23:30;16.70;99.90
59234;DHT22;60776;51.702;7.462;2023-08-06T03:25:56;16.60;99.90
59234;DHT22;60776;51.702;7.462;2023-08-06T03:28:21;16.50;99.90
59234;DHT22;60776;51.702;7.462;2023-08-06T03:30:47;16.40;99.90
59234;DHT22;60776;51.702;7.462;2023-08-06T03:33:13;16.40;99.90
59234;DHT22;60776;51.702;7.462;2023-08-06T03:35:39;16.40;99.90
59234;DHT22;60776;51.702;7.462;2023-08-06T03:38:05;16.30;99.90
59234;DHT22;60776;51.702;7.462;2023-08-06T03:40:31;16.30;99.90
59234;DHT22;60776;51.702;7.462;2023-08-06T03:42:56;16.40;99.90
59234;DHT22;60776;51.702;7.462;2023-08-06T03:45:22;16.40;99.90
59234;DHT22;60776;51.702;7.462;2023-08-06T03:47:48;16.40;99.90
59234;DHT22;60776;51.702;7.462;2023-08-06T03:50:13;16.50;99.90
59234;DHT22;60776;51.702;7.462;2023-08-06T03:52:39;16.40;99.90
59234;DHT22;60776;51.702;7.462;2023-08-06T03:55:05;16.40;99.90
59234;DHT22;60776;51.702;7.462;2023-08-06T03:57:30;16.40;99.90
59234;DHT22;60776;51.702;7.462;2023-08-06T03:59:56;16.50;99.90
59234;DHT22;60776;51.702;7.462;2023-08-06T04:02:22;16.40;99.90
59234;DHT22;60776;51.702;7.462;2023-08-06T04:04:48;16.50;99.90
59234;DHT22;60776;51.702;7.462;2023-08-06T04:07:14;16.50;99.90
59234;DHT22;60776;51.702;7.462;2023-08-06T04:10:12;16.50;99.90
59234;DHT22;60776;51.702;7.462;2023-08-06T04:12:38;16.50;99.90
59234;DHT22;60776;51.702;7.462;2023-08-06T04:15:05;16.50;99.90
59234;DHT22;60776;51.702;7.462;2023-08-06T04:17:30;16.50;99.90
59234;DHT22;60776;51.702;7.462;2023-08-06T04:19:56;16.50;99.90
59234;DHT22;60776;51.702;7.462;2023-08-06T04:22:24;16.50;99.90
59234;DHT22;60776;51.702;7.462;2023-08-06T04:24:50;16.60;99.90
59234;DHT22;60776;51.702;7.462;2023-08-06T04:27:17;16.50;99.90
59234;DHT22;60776;51.702;7.462;2023-08-06T04:29:43;16.60;99.90
59234;DHT22;60776;51.702;7.462;2023-08-06T04:32:10;16.60;99.90
59234;DHT22;60776;51.702;7.462;2023-08-06T04:34:39;16.70;99.90
59234;DHT22;60776;51.702;7.462;2023-08-06T04:37:05;16.70;99.90
59234;DHT22;60776;51.702;7.462;2023-08-06T04:39:31;16.70;99.90
59234;DHT22;60776;51.702;7.462;2023-08-06T04:41:57;16.80;99.90
59234;DHT22;60776;51.702;7.462;2023-08-06T04:44:25;16.80;99.90
59234;DHT22;60776;51.702;7.462;2023-08-06T04:46:51;16.80;99.90
59234;DHT22;60776;51.702;7.462;2023-08-06T04:49:17;16.80;99.90
59234;DHT22;60776;51.702;7.462;2023-08-06T04:51:43;16.80;99.90
59234;DHT22;60776;51.702;7.462;2023-08-06T04:54:09;17.00;99.90
59234;DHT22;60776;51.702;7.462;2023-08-06T04:56:35;16.90;99.90
59234;DHT22;60776;51.702;7.462;2023-08-06T04:59:01;16.90;99.90
59234;DHT22;60776;51.702;7.462;2023-08-06T05:01:27;16.80;99.90
59234;DHT22;60776;51.702;7.462;2023-08-06T05:03:53;16.80;99.90
59234;DHT22;60776;51.702;7.462;2023-08-06T05:06:19;16.70;99.90
59234;DHT22;60776;51.702;7.462;2023-08-06T05:08:45;16.80;99.90
59234;DHT22;60776;51.702;7.462;2023-08-06T05:11:10;16.90;99.90
59234;DHT22;60776;51.702;7.462;2023-08-06T05:13:36;17.00;99.90
59234;DHT22;60776;51.702;7.462;2023-08-06T05:16:01;17.00;99.90
59234;DHT22;60776;51.702;7.462;2023-08-06T05:18:30;17.10;99.90
59234;DHT22;60776;51.702;7.462;2023-08-06T05:20:56;17.10;99.90
59234;DHT22;60776;51.702;7.462;2023-08-06T05:23:22;17.20;99.90
59234;DHT22;60776;51.702;7.462;2023-08-06T05:25:48;17.20;99.90
59234;DHT22;60776;51.702;7.462;2023-08-06T05:28:13;17.30;99.90
59234;DHT22;60776;51.702;7.462;2023-08-06T05:30:40;17.30;99.90
59234;DHT22;60776;51.702;7.462;2023-08-06T05:33:05;17.30;99.90
59234;DHT22;60776;51.702;7.462;2023-08-06T05:35:31;17.40;99.90
59234;DHT22;60776;51.702;7.462;2023-08-06T05:37:57;17.50;99.90
59234;DHT22;60776;51.702;7.462;2023-08-06T05:40:23;17.60;99.90
59234;DHT22;60776;51.702;7.462;2023-08-06T05:42:51;17.70;99.90
59234;DHT22;60776;51.702;7.462;2023-08-06T05:45:17;17.80;99.90
59234;DHT22;60776;51.702;7.462;2023-08-06T05:47:42;17.90;99.90
59234;DHT22;60776;51.702;7.462;2023-08-06T05:50:08;17.90;99.90
59234;DHT22;60776;51.702;7.462;2023-08-06T05:52:34;18.10;99.90
59234;DHT22;60776;51.702;7.462;2023-08-06T05:55:00;18.30;99.90
59234;DHT22;60776;51.702;7.462;2023-08-06T05:57:25;18.40;99.90
59234;DHT22;60776;51.702;7.462;2023-08-06T05:59:51;18.60;99.90
59234;DHT22;60776;51.702;7.462;2023-08-06T06:02:17;18.90;99.90
59234;DHT22;60776;51.702;7.462;2023-08-06T06:04:44;20.30;99.90
59234;DHT22;60776;51.702;7.462;2023-08-06T06:07:09;22.30;99.90
59234;DHT22;60776;51.702;7.462;2023-08-06T06:09:35;24.10;99.90
59234;DHT22;60776;51.702;7.462;2023-08-06T06:12:01;25.60;99.90
59234;DHT22;60776;51.702;7.462;2023-08-06T06:14:26;27.00;99.90
59234;DHT22;60776;51.702;7.462;2023-08-06T06:16:52;28.30;99.90
59234;DHT22;60776;51.702;7.462;2023-08-06T06:19:18;29.20;99.90
59234;DHT22;60776;51.702;7.462;2023-08-06T06:21:44;28.80;99.40
59234;DHT22;60776;51.702;7.462;2023-08-06T06:24:09;27.70;97.60
59234;DHT22;60776;51.702;7.462;2023-08-06T06:26:35;26.50;98.40
59234;DHT22;60776;51.702;7.462;2023-08-06T06:29:01;25.60;99.90
59234;DHT22;60776;51.702;7.462;2023-08-06T06:31:26;26.20;99.90
59234;DHT22;60776;51.702;7.462;2023-08-06T06:33:52;27.90;99.90
59234;DHT22;60776;51.702;7.462;2023-08-06T06:36:19;29.40;97.00
59234;DHT22;60776;51.702;7.462;2023-08-06T06:38:45;29.60;91.90
59234;DHT22;60776;51.702;7.462;2023-08-06T06:41:11;30.50;92.30
59234;DHT22;60776;51.702;7.462;2023-08-06T06:43:37;31.60;88.80
59234;DHT22;60776;51.702;7.462;2023-08-06T06:46:04;32.50;78.50
59234;DHT22;60776;51.702;7.462;2023-08-06T06:48:31;33.30;72.20
59234;DHT22;60776;51.702;7.462;2023-08-06T06:50:57;34.00;65.40
59234;DHT22;60776;51.702;7.462;2023-08-06T06:53:22;33.30;61.90
59234;DHT22;60776;51.702;7.462;2023-08-06T06:55:55;32.20;61.50
59234;DHT22;60776;51.702;7.462;2023-08-06T06:58:21;31.60;63.60
59234;DHT22;60776;51.702;7.462;2023-08-06T07:00:49;31.40;64.20
59234;DHT22;60776;51.702;7.462;2023-08-06T07:03:15;31.10;65.10
59234;DHT22;60776;51.702;7.462;2023-08-06T07:05:41;31.20;67.00
59234;DHT22;60776;51.702;7.462;2023-08-06T07:08:07;31.10;65.50
59234;DHT22;60776;51.702;7.462;2023-08-06T07:10:32;31.00;66.60
59234;DHT22;60776;51.702;7.462;2023-08-06T07:12:58;31.30;67.10
59234;DHT22;60776;51.702;7.462;2023-08-06T07:15:24;31.60;65.90
59234;DHT22;60776;51.702;7.462;2023-08-06T07:17:49;32.20;63.80
59234;DHT22;60776;51.702;7.462;2023-08-06T07:20:15;32.60;61.30
59234;DHT22;60776;51.702;7.462;2023-08-06T07:22:41;32.00;59.70
59234;DHT22;60776;51.702;7.462;2023-08-06T07:25:07;31.30;60.30
59234;DHT22;60776;51.702;7.462;2023-08-06T07:27:32;30.50;60.60
59234;DHT22;60776;51.702;7.462;2023-08-06T07:29:58;29.70;60.50
59234;DHT22;60776;51.702;7.462;2023-08-06T07:32:24;28.90;62.80
59234;DHT22;60776;51.702;7.462;2023-08-06T07:34:50;28.30;64.00
59234;DHT22;60776;51.702;7.462;2023-08-06T07:37:22;27.70;64.90
59234;DHT22;60776;51.702;7.462;2023-08-06T07:39:47;27.10;65.70
59234;DHT22;60776;51.702;7.462;2023-08-06T07:42:13;26.80;66.90
59234;DHT22;60776;51.702;7.462;2023-08-06T07:44:39;26.40;68.60
59234;DHT22;60776;51.702;7.462;2023-08-06T07:47:05;26.10;69.60
59234;DHT22;60776;51.702;7.462;2023-08-06T07:49:30;25.90;70.90
59234;DHT22;60776;51.702;7.462;2023-08-06T07:51:56;25.70;71.50
59234;DHT22;60776;51.702;7.462;2023-08-06T07:54:22;25.60;72.10
59234;DHT22;60776;51.702;7.462;2023-08-06T07:56:49;25.40;73.00
59234;DHT22;60776;51.702;7.462;2023-08-06T07:59:15;25.30;75.20
59234;DHT22;60776;51.702;7.462;2023-08-06T08:01:41;25.30;76.70
59234;DHT22;60776;51.702;7.462;2023-08-06T08:04:06;25.30;78.30
59234;DHT22;60776;51.702;7.462;2023-08-06T08:06:33;25.40;79.20
59234;DHT22;60776;51.702;7.462;2023-08-06T08:08:59;25.50;79.60
59234;DHT22;60776;51.702;7.462;2023-08-06T08:11:26;25.60;80.90
59234;DHT22;60776;51.702;7.462;2023-08-06T08:13:51;25.50;82.80
59234;DHT22;60776;51.702;7.462;2023-08-06T08:16:17;25.60;84.70
59234;DHT22;60776;51.702;7.462;2023-08-06T08:18:42;25.60;86.30
59234;DHT22;60776;51.702;7.462;2023-08-06T08:21:08;25.80;87.50
59234;DHT22;60776;51.702;7.462;2023-08-06T08:23:38;26.10;88.30
59234;DHT22;60776;51.702;7.462;2023-08-06T08:26:04;26.60;86.90
59234;DHT22;60776;51.702;7.462;2023-08-06T08:28:30;27.10;86.40
59234;DHT22;60776;51.702;7.462;2023-08-06T08:30:56;27.50;82.90
59234;DHT22;60776;51.702;7.462;2023-08-06T08:33:22;27.80;80.80
59234;DHT22;60776;51.702;7.462;2023-08-06T08:35:47;28.10;79.60
59234;DHT22;60776;51.702;7.462;2023-08-06T08:38:13;28.50;78.60
59234;DHT22;60776;51.702;7.462;2023-08-06T08:40:46;28.90;77.30
59234;DHT22;60776;51.702;7.462;2023-08-06T08:43:15;29.30;72.30
59234;DHT22;60776;51.702;7.462;2023-08-06T08:45:42;29.30;71.70
59234;DHT22;60776;51.702;7.462;2023-08-06T08:48:12;29.50;72.00
59234;DHT22;60776;51.702;7.462;2023-08-06T08:50:39;29.60;71.20
59234;DHT22;60776;51.702;7.462;2023-08-06T08:53:05;29.70;70.90
59234;DHT22;60776;51.702;7.462;2023-08-06T08:55:31;29.70;71.30
59234;DHT22;60776;51.702;7.462;2023-08-06T08:57:57;30.50;71.00
59234;DHT22;60776;51.702;7.462;2023-08-06T09:00:24;31.30;67.90
59234;DHT22;60776;51.702;7.462;2023-08-06T09:02:51;32.50;65.30
59234;DHT22;60776;51.702;7.462;2023-08-06T09:05:18;33.80;60.50
59234;DHT22;60776;51.702;7.462;2023-08-06T09:07:48;34.30;56.10
59234;DHT22;60776;51.702;7.462;2023-08-06T09:10:16;34.80;55.30
59234;DHT22;60776;51.702;7.462;2023-08-06T09:12:43;36.70;54.00
59234;DHT22;60776;51.702;7.462;2023-08-06T09:15:10;37.80;50.40
59234;DHT22;60776;51.702;7.462;2023-08-06T09:17:36;37.40;48.00
59234;DHT22;60776;51.702;7.462;2023-08-06T09:20:12;37.70;48.20
59234;DHT22;60776;51.702;7.462;2023-08-06T09:22:38;37.70;46.70
59234;DHT22;60776;51.702;7.462;2023-08-06T09:25:05;36.70;46.70
59234;DHT22;60776;51.702;7.462;2023-08-06T09:27:35;35.50;48.60
59234;DHT22;60776;51.702;7.462;2023-08-06T09:30:02;34.90;50.60
59234;DHT22;60776;51.702;7.462;2023-08-06T09:32:45;35.60;50.60
59234;DHT22;60776;51.702;7.462;2023-08-06T09:35:15;35.20;50.20
59234;DHT22;60776;51.702;7.462;2023-08-06T09:37:42;34.00;50.60
59234;DHT22;60776;51.702;7.462;2023-08-06T09:42:52;32.00;52.60
59234;DHT22;60776;51.702;7.462;2023-08-06T09:45:18;31.30;53.80
59234;DHT22;60776;51.702;7.462;2023-08-06T09:47:44;30.90;54.70
59234;DHT22;60776;51.702;7.462;2023-08-06T09:50:20;30.40;54.70
59234;DHT22;60776;51.702;7.462;2023-08-06T09:52:50;30.00;55.80
59234;DHT22;60776;51.702;7.462;2023-08-06T09:55:16;29.80;57.00
59234;DHT22;60776;51.702;7.462;2023-08-06T09:57:42;29.70;57.20
59234;DHT22;60776;51.702;7.462;2023-08-06T10:00:09;29.60;57.80
59234;DHT22;60776;51.702;7.462;2023-08-06T10:02:38;29.50;58.80
59234;DHT22;60776;51.702;7.462;2023-08-06T10:05:05;29.50;58.80
59234;DHT22;60776;51.702;7.462;2023-08-06T10:07:31;29.30;58.60
59234;DHT22;60776;51.702;7.462;2023-08-06T10:09:58;29.70;58.90
59234;DHT22;60776;51.702;7.462;2023-08-06T10:12:25;31.40;58.20
59234;DHT22;60776;51.702;7.462;2023-08-06T10:14:54;32.30;54.80
59234;DHT22;60776;51.702;7.462;2023-08-06T10:17:23;32.30;54.40
59234;DHT22;60776;51.702;7.462;2023-08-06T10:19:50;32.00;53.90
59234;DHT22;60776;51.702;7.462;2023-08-06T10:22:17;31.60;54.30
59234;DHT22;60776;51.702;7.462;2023-08-06T10:27:20;33.10;54.50
59234;DHT22;60776;51.702;7.462;2023-08-06T10:29:46;33.80;53.70
59234;DHT22;60776;51.702;7.462;2023-08-06T10:32:12;33.60;52.80
59234;DHT22;60776;51.702;7.462;2023-08-06T10:34:59;33.10;51.50
59234;DHT22;60776;51.702;7.462;2023-08-06T10:37:35;32.30;51.70
59234;DHT22;60776;51.702;7.462;2023-08-06T10:40:02;32.00;52.90
59234;DHT22;60776;51.702;7.462;2023-08-06T10:42:29;32.00;53.70
59234;DHT22;60776;51.702;7.462;2023-08-06T10:45:15;32.10;53.70
59234;DHT22;60776;51.702;7.462;2023-08-06T10:47:45;31.80;53.40
59234;DHT22;60776;51.702;7.462;2023-08-06T10:50:15;31.90;54.10
59234;DHT22;60776;51.702;7.462;2023-08-06T10:52:43;32.00;53.80
59234;DHT22;60776;51.702;7.462;2023-08-06T10:55:09;32.10;53.50
59234;DHT22;60776;51.702;7.462;2023-08-06T10:57:35;32.40;53.40
59234;DHT22;60776;51.702;7.462;2023-08-06T11:00:01;33.20;53.70
59234;DHT22;60776;51.702;7.462;2023-08-06T11:02:28;34.00;52.30
59234;DHT22;60776;51.702;7.462;2023-08-06T11:04:53;34.10;51.10
59234;DHT22;60776;51.702;7.462;2023-08-06T11:07:19;34.00;49.80
59234;DHT22;60776;51.702;7.462;2023-08-06T11:09:50;34.00;50.00
59234;DHT22;60776;51.702;7.462;2023-08-06T11:12:19;33.80;50.30
59234;DHT22;60776;51.702;7.462;2023-08-06T11:14:50;33.80;50.50
59234;DHT22;60776;51.702;7.462;2023-08-06T11:17:15;33.60;51.00
59234;DHT22;60776;51.702;7.462;2023-08-06T11:19:41;33.30;50.60
59234;DHT22;60776;51.702;7.462;2023-08-06T11:22:07;33.20;51.10
59234;DHT22;60776;51.702;7.462;2023-08-06T11:24:33;33.60;51.00
59234;DHT22;60776;51.702;7.462;2023-08-06T11:26:58;33.90;50.50
59234;DHT22;60776;51.702;7.462;2023-08-06T11:29:24;33.70;50.40
59234;DHT22;60776;51.702;7.462;2023-08-06T11:31:49;33.20;50.60
59234;DHT22;60776;51.702;7.462;2023-08-06T11:34:15;32.70;51.10
59234;DHT22;60776;51.702;7.462;2023-08-06T11:36:42;32.10;51.40
59234;DHT22;60776;51.702;7.462;2023-08-06T11:39:09;31.40;52.50
59234;DHT22;60776;51.702;7.462;2023-08-06T11:41:36;30.70;52.80
59234;DHT22;60776;51.702;7.462;2023-08-06T11:44:03;30.20;54.00
59234;DHT22;60776;51.702;7.462;2023-08-06T11:46:29;29.70;54.60
59234;DHT22;60776;51.702;7.462;2023-08-06T11:49:14;29.50;55.50
59234;DHT22;60776;51.702;7.462;2023-08-06T11:51:40;29.30;55.70
59234;DHT22;60776;51.702;7.462;2023-08-06T11:54:05;29.10;56.20
59234;DHT22;60776;51.702;7.462;2023-08-06T11:56:32;29.00;57.00
59234;DHT22;60776;51.702;7.462;2023-08-06T11:58:58;28.80;57.20
59234;DHT22;60776;51.702;7.462;2023-08-06T12:01:23;28.60;57.20
59234;DHT22;60776;51.702;7.462;2023-08-06T12:03:51;28.60;57.90
59234;DHT22;60776;51.702;7.462;2023-08-06T12:06:16;28.60;58.20
59234;DHT22;60776;51.702;7.462;2023-08-06T12:08:42;28.50;57.90
59234;DHT22;60776;51.702;7.462;2023-08-06T12:11:07;28.50;58.20
59234;DHT22;60776;51.702;7.462;2023-08-06T12:13:34;28.50;58.10
59234;DHT22;60776;51.702;7.462;2023-08-06T12:15:59;28.60;58.20
59234;DHT22;60776;51.702;7.462;2023-08-06T12:18:25;28.60;58.20
59234;DHT22;60776;51.702;7.462;2023-08-06T12:20:51;28.50;58.60
59234;DHT22;60776;51.702;7.462;2023-08-06T12:23:17;28.30;58.80
59234;DHT22;60776;51.702;7.462;2023-08-06T12:25:43;28.30;58.90
59234;DHT22;60776;51.702;7.462;2023-08-06T12:28:10;28.30;59.30
59234;DHT22;60776;51.702;7.462;2023-08-06T12:30:36;28.50;58.60
59234;DHT22;60776;51.702;7.462;2023-08-06T12:33:01;28.60;58.60
59234;DHT22;60776;51.702;7.462;2023-08-06T12:35:27;28.70;58.70
59234;DHT22;60776;51.702;7.462;2023-08-06T12:37:53;28.80;58.70
59234;DHT22;60776;51.702;7.462;2023-08-06T12:40:23;28.50;58.70
59234;DHT22;60776;51.702;7.462;2023-08-06T12:42:53;28.40;59.10
59234;DHT22;60776;51.702;7.462;2023-08-06T12:45:19;28.20;59.10
59234;DHT22;60776;51.702;7.462;2023-08-06T12:47:46;28.10;58.90
59234;DHT22;60776;51.702;7.462;2023-08-06T12:50:12;27.90;59.40
59234;DHT22;60776;51.702;7.462;2023-08-06T12:52:38;27.70;59.20
59234;DHT22;60776;51.702;7.462;2023-08-06T12:55:04;27.30;60.30
59234;DHT22;60776;51.702;7.462;2023-08-06T12:57:29;26.80;62.70
59234;DHT22;60776;51.702;7.462;2023-08-06T12:59:55;26.30;65.10
59234;DHT22;60776;51.702;7.462;2023-08-06T13:02:20;25.90;67.20
59234;DHT22;60776;51.702;7.462;2023-08-06T13:04:47;25.40;69.10
59234;DHT22;60776;51.702;7.462;2023-08-06T13:07:13;24.90;74.70
59234;DHT22;60776;51.702;7.462;2023-08-06T13:09:38;24.40;76.80
59234;DHT22;60776;51.702;7.462;2023-08-06T13:12:04;24.00;91.40
59234;DHT22;60776;51.702;7.462;2023-08-06T13:14:31;23.70;99.90
59234;DHT22;60776;51.702;7.462;2023-08-06T13:16:57;23.50;99.90
59234;DHT22;60776;51.702;7.462;2023-08-06T13:19:23;23.10;99.90
59234;DHT22;60776;51.702;7.462;2023-08-06T13:24:15;22.90;99.90
59234;DHT22;60776;51.702;7.462;2023-08-06T13:26:41;22.70;99.90
59234;DHT22;60776;51.702;7.462;2023-08-06T13:29:07;22.60;99.90
59234;DHT22;60776;51.702;7.462;2023-08-06T13:31:32;22.30;99.90
59234;DHT22;60776;51.702;7.462;2023-08-06T13:33:58;22.00;99.90
59234;DHT22;60776;51.702;7.462;2023-08-06T13:36:27;21.70;99.90
59234;DHT22;60776;51.702;7.462;2023-08-06T13:38:53;21.50;99.90
59234;DHT22;60776;51.702;7.462;2023-08-06T13:41:19;21.20;99.90
59234;DHT22;60776;51.702;7.462;2023-08-06T13:43:45;20.90;99.90
59234;DHT22;60776;51.702;7.462;2023-08-06T13:46:11;20.60;99.90
59234;DHT22;60776;51.702;7.462;2023-08-06T13:48:42;20.30;99.90
59234;DHT22;60776;51.702;7.462;2023-08-06T13:51:08;20.10;99.90
59234;DHT22;60776;51.702;7.462;2023-08-06T13:53:33;20.00;99.90
59234;DHT22;60776;51.702;7.462;2023-08-06T13:55:59;19.90;99.90
59234;DHT22;60776;51.702;7.462;2023-08-06T13:58:25;19.90;99.90
59234;DHT22;60776;51.702;7.462;2023-08-06T14:00:52;19.80;99.90
59234;DHT22;60776;51.702;7.462;2023-08-06T14:03:18;19.70;99.90
59234;DHT22;60776;51.702;7.462;2023-08-06T14:05:44;19.70;99.90
59234;DHT22;60776;51.702;7.462;2023-08-06T14:08:10;19.80;99.90
59234;DHT22;60776;51.702;7.462;2023-08-06T14:10:35;19.90;99.90
59234;DHT22;60776;51.702;7.462;2023-08-06T14:13:01;20.10;99.90
59234;DHT22;60776;51.702;7.462;2023-08-06T14:15:27;20.30;99.90
59234;DHT22;60776;51.702;7.462;2023-08-06T14:17:52;20.60;99.90
59234;DHT22;60776;51.702;7.462;2023-08-06T14:20:18;20.80;99.90
59234;DHT22;60776;51.702;7.462;2023-08-06T14:22:44;21.00;99.90
59234;DHT22;60776;51.702;7.462;2023-08-06T14:25:09;21.20;99.90
59234;DHT22;60776;51.702;7.462;2023-08-06T14:27:35;21.40;99.90
59234;DHT22;60776;51.702;7.462;2023-08-06T14:30:01;21.50;99.90
59234;DHT22;60776;51.702;7.462;2023-08-06T14:32:28;21.40;99.90
59234;DHT22;60776;51.702;7.462;2023-08-06T14:34:54;21.20;99.90
59234;DHT22;60776;51.702;7.462;2023-08-06T14:37:20;21.30;99.90
59234;DHT22;60776;51.702;7.462;2023-08-06T14:39:45;21.40;99.90
59234;DHT22;60776;51.702;7.462;2023-08-06T14:42:11;21.50;99.90
59234;DHT22;60776;51.702;7.462;2023-08-06T14:44:37;21.70;99.90
59234;DHT22;60776;51.702;7.462;2023-08-06T14:47:02;22.00;99.90
59234;DHT22;60776;51.702;7.462;2023-08-06T14:49:28;22.40;99.90
59234;DHT22;60776;51.702;7.462;2023-08-06T14:51:54;22.70;99.90
59234;DHT22;60776;51.702;7.462;2023-08-06T14:54:19;22.90;99.90
59234;DHT22;60776;51.702;7.462;2023-08-06T14:56:45;23.10;99.90
59234;DHT22;60776;51.702;7.462;2023-08-06T14:59:11;23.00;99.90
59234;DHT22;60776;51.702;7.462;2023-08-06T15:01:36;22.90;99.90
59234;DHT22;60776;51.702;7.462;2023-08-06T15:04:02;22.90;99.90
59234;DHT22;60776;51.702;7.462;2023-08-06T15:06:28;22.90;99.90
59234;DHT22;60776;51.702;7.462;2023-08-06T15:08:53;22.90;99.90
59234;DHT22;60776;51.702;7.462;2023-08-06T15:11:23;22.80;99.90
59234;DHT22;60776;51.702;7.462;2023-08-06T15:13:49;22.60;99.90
59234;DHT22;60776;51.702;7.462;2023-08-06T15:16:14;22.20;99.90
59234;DHT22;60776;51.702;7.462;2023-08-06T15:18:40;22.00;99.90
59234;DHT22;60776;51.702;7.462;2023-08-06T15:21:05;21.70;99.90
59234;DHT22;60776;51.702;7.462;2023-08-06T15:23:31;21.40;99.90
59234;DHT22;60776;51.702;7.462;2023-08-06T15:25:57;21.20;99.90
59234;DHT22;60776;51.702;7.462;2023-08-06T15:28:22;21.10;99.90
59234;DHT22;60776;51.702;7.462;2023-08-06T15:30:49;20.90;99.90
59234;DHT22;60776;51.702;7.462;2023-08-06T15:33:15;20.80;99.90
59234;DHT22;60776;51.702;7.462;2023-08-06T15:35:40;20.70;99.90
59234;DHT22;60776;51.702;7.462;2023-08-06T15:38:06;20.60;99.90
59234;DHT22;60776;51.702;7.462;2023-08-06T15:40:32;20.50;99.90
59234;DHT22;60776;51.702;7.462;2023-08-06T15:42:58;20.40;99.90
59234;DHT22;60776;51.702;7.462;2023-08-06T15:45:23;20.30;99.90